createdAt,value
2022-10-17T00:00:11.508Z,39.40
2022-10-17T00:02:37.941Z,32.63
2022-10-17T00:05:04.761Z,31.27
2022-10-17T00:07:32.313Z,32.20
2022-10-17T00:09:58.727Z,33.20
2022-10-17T00:12:25.195Z,36.40
2022-10-17T00:14:51.806Z,32.33
2022-10-17T00:17:18.470Z,35.10
2022-10-17T00:19:44.936Z,32.83
2022-10-17T00:22:11.564Z,37.93
2022-10-17T00:24:38.062Z,32.40
2022-10-17T00:27:04.501Z,35.97
2022-10-17T00:29:32.066Z,33.67
2022-10-17T00:31:58.492Z,31.03
2022-10-17T00:34:25.379Z,41.43
2022-10-17T00:36:51.998Z,34.37
2022-10-17T00:39:18.618Z,35.73
2022-10-17T00:41:45.032Z,34.77
2022-10-17T00:44:29.824Z,38.50
2022-10-17T00:47:05.019Z,32.83
2022-10-17T00:49:34.930Z,33.30
2022-10-17T00:52:05.108Z,38.33
2022-10-17T00:54:34.718Z,35.57
2022-10-17T00:57:01.544Z,36.93
2022-10-17T00:59:28.389Z,33.57
2022-10-17T01:02:05.583Z,32.43
2022-10-17T01:04:32.517Z,33.73
2022-10-17T01:06:59.150Z,35.83
2022-10-17T01:09:26.421Z,36.20
2022-10-17T01:12:02.681Z,33.23
2022-10-17T01:14:43.976Z,35.63
2022-10-17T01:17:29.565Z,35.70
2022-10-17T01:20:24.117Z,44.40
2022-10-17T01:23:05.303Z,38.13
2022-10-17T01:25:51.898Z,39.67
2022-10-17T01:31:15.927Z,31.10
2022-10-17T01:34:02.038Z,38.77
2022-10-17T01:36:43.629Z,34.77
2022-10-17T01:39:14.909Z,36.17
2022-10-17T01:42:05.930Z,37.20
2022-10-17T01:47:41.943Z,33.33
2022-10-17T01:50:15.338Z,35.67
2022-10-17T01:52:45.551Z,39.43
2022-10-17T01:55:33.164Z,33.17
2022-10-17T01:58:06.083Z,33.10
2022-10-17T02:00:32.856Z,38.93
2022-10-17T02:03:01.533Z,36.30
2022-10-17T02:05:32.426Z,35.57
2022-10-17T02:07:58.974Z,41.13
2022-10-17T02:10:35.413Z,36.03
2022-10-17T02:13:14.282Z,32.17
2022-10-17T02:16:09.008Z,34.00
2022-10-17T02:18:48.159Z,36.87
2022-10-17T02:21:19.657Z,40.73
2022-10-17T02:23:52.177Z,40.23
2022-10-17T02:26:26.459Z,36.97
2022-10-17T02:29:06.036Z,35.40
2022-10-17T02:31:38.831Z,41.27
2022-10-17T02:34:07.966Z,34.83
2022-10-17T02:36:39.683Z,39.10
2022-10-17T02:39:07.886Z,37.97
2022-10-17T02:41:35.197Z,38.90
2022-10-17T02:44:02.594Z,36.30
2022-10-17T02:46:29.483Z,37.07
2022-10-17T02:49:07.877Z,37.43
2022-10-17T02:51:42.797Z,36.17
2022-10-17T02:54:27.949Z,40.73
2022-10-17T02:57:07.106Z,41.23
2022-10-17T03:02:06.847Z,37.37
2022-10-17T03:04:34.284Z,33.17
2022-10-17T03:07:00.766Z,40.30
2022-10-17T03:09:27.405Z,40.93
2022-10-17T03:11:53.909Z,35.80
2022-10-17T03:14:20.653Z,40.20
2022-10-17T03:16:47.241Z,39.73
2022-10-17T03:19:13.763Z,38.57
2022-10-17T03:21:40.286Z,40.03
2022-10-17T03:24:07.117Z,38.23
2022-10-17T03:26:33.644Z,37.53
2022-10-17T03:29:00.242Z,37.83
2022-10-17T03:31:26.945Z,36.30
2022-10-17T03:33:53.453Z,36.33
2022-10-17T03:36:20.067Z,42.47
2022-10-17T03:38:47.159Z,38.20
2022-10-17T03:41:13.731Z,37.83
2022-10-17T03:43:40.605Z,41.53
2022-10-17T03:46:07.421Z,38.83
2022-10-17T03:48:33.991Z,35.47
2022-10-17T03:51:05.658Z,37.33
2022-10-17T03:53:32.450Z,39.93
2022-10-17T03:56:15.911Z,38.07
2022-10-17T03:58:42.758Z,39.27
2022-10-17T04:01:11.004Z,39.73
2022-10-17T04:03:37.555Z,40.60
2022-10-17T04:06:05.047Z,48.43
2022-10-17T04:08:32.736Z,37.77
2022-10-17T04:11:02.956Z,40.70
2022-10-17T04:13:29.777Z,37.13
2022-10-17T04:16:02.162Z,40.43
2022-10-17T04:18:28.903Z,37.80
2022-10-17T04:20:55.463Z,38.63
2022-10-17T04:23:22.391Z,34.50
2022-10-17T04:25:49.250Z,33.93
2022-10-17T04:28:15.952Z,40.43
2022-10-17T04:30:45.132Z,42.00
2022-10-17T04:33:12.067Z,36.93
2022-10-17T04:35:38.527Z,43.80
2022-10-17T04:38:05.080Z,39.23
2022-10-17T04:40:32.309Z,42.20
2022-10-17T04:42:58.829Z,37.23
2022-10-17T04:45:25.324Z,50.00
2022-10-17T04:47:51.764Z,41.50
2022-10-17T04:50:18.379Z,42.17
2022-10-17T04:52:44.838Z,38.87
2022-10-17T04:55:11.525Z,45.17
2022-10-17T04:57:38.045Z,46.40
2022-10-17T05:00:04.912Z,37.33
2022-10-17T05:02:32.622Z,43.70
2022-10-17T05:04:59.231Z,40.90
2022-10-17T05:07:25.898Z,38.37
2022-10-17T05:09:52.385Z,42.77
2022-10-17T05:12:19.000Z,40.47
2022-10-17T05:14:45.544Z,42.33
2022-10-17T05:17:11.968Z,47.40
2022-10-17T05:19:38.723Z,45.60
2022-10-17T05:22:05.195Z,43.07
2022-10-17T05:24:32.637Z,44.07
2022-10-17T05:26:59.128Z,42.10
2022-10-17T05:29:26.043Z,39.27
2022-10-17T05:31:52.711Z,40.93
2022-10-17T05:34:19.425Z,40.57
2022-10-17T05:36:46.238Z,44.23
2022-10-17T05:39:14.804Z,44.33
2022-10-17T05:41:41.575Z,38.33
2022-10-17T05:44:08.203Z,42.63
2022-10-17T05:46:34.646Z,55.10
2022-10-17T05:49:01.089Z,45.97
2022-10-17T05:51:27.696Z,51.40
2022-10-17T05:53:54.354Z,40.07
2022-10-17T05:56:20.840Z,36.00
2022-10-17T05:58:53.256Z,41.07
2022-10-17T06:01:21.719Z,42.83
2022-10-17T06:03:48.181Z,41.37
2022-10-17T06:06:15.698Z,48.27
2022-10-17T06:08:42.551Z,37.57
2022-10-17T06:11:10.507Z,43.23
2022-10-17T06:13:38.314Z,39.87
2022-10-17T06:16:05.545Z,38.77
2022-10-17T06:18:32.425Z,44.53
2022-10-17T06:21:06.265Z,38.20
2022-10-17T06:23:32.932Z,39.67
2022-10-17T06:26:04.056Z,43.47
2022-10-17T06:28:31.369Z,36.70
2022-10-17T06:30:58.191Z,44.30
2022-10-17T06:33:25.000Z,43.63
2022-10-17T06:35:55.472Z,45.90
2022-10-17T06:38:22.559Z,55.43
2022-10-17T06:40:49.217Z,40.37
2022-10-17T06:43:15.717Z,44.83
2022-10-17T06:45:42.259Z,49.37
2022-10-17T06:48:08.807Z,43.53
2022-10-17T06:50:35.688Z,49.43
2022-10-17T06:53:02.243Z,47.47
2022-10-17T06:55:28.669Z,43.93
2022-10-17T06:57:56.411Z,40.83
2022-10-17T07:00:23.539Z,40.43
2022-10-17T07:02:50.108Z,46.33
2022-10-17T07:05:16.890Z,44.13
2022-10-17T07:07:44.824Z,47.73
2022-10-17T07:10:12.914Z,40.53
2022-10-17T07:12:39.402Z,45.10
2022-10-17T07:15:06.276Z,46.60
2022-10-17T07:17:32.952Z,46.00
2022-10-17T07:19:59.472Z,38.97
2022-10-17T07:22:26.001Z,40.33
2022-10-17T07:24:52.462Z,36.60
2022-10-17T07:27:19.572Z,36.83
2022-10-17T07:29:46.094Z,37.53
2022-10-17T07:32:12.529Z,37.07
2022-10-17T07:34:38.957Z,33.47
2022-10-17T07:37:07.024Z,38.63
2022-10-17T07:39:35.623Z,34.73
2022-10-17T07:42:02.415Z,38.63
2022-10-17T07:44:29.363Z,35.17
2022-10-17T07:46:56.121Z,28.43
2022-10-17T07:49:22.583Z,42.10
2022-10-17T07:51:50.178Z,28.60
2022-10-17T07:54:17.238Z,35.50
2022-10-17T07:56:44.032Z,25.33
2022-10-17T07:59:10.901Z,32.03
2022-10-17T08:01:37.937Z,31.27
2022-10-17T08:04:04.601Z,28.63
2022-10-17T08:06:34.172Z,28.50
2022-10-17T08:09:01.901Z,37.83
2022-10-17T08:11:28.331Z,28.30
2022-10-17T08:13:54.888Z,38.00
2022-10-17T08:16:21.495Z,36.53
2022-10-17T08:18:54.106Z,33.43
2022-10-17T08:21:20.622Z,32.87
2022-10-17T08:23:47.181Z,33.40
2022-10-17T08:26:16.796Z,29.73
2022-10-17T08:28:43.757Z,39.17
2022-10-17T08:31:13.432Z,30.40
2022-10-17T08:33:40.930Z,34.73
2022-10-17T08:36:08.579Z,29.23
2022-10-17T08:38:37.585Z,32.70
2022-10-17T08:41:12.137Z,34.37
2022-10-17T08:43:55.189Z,35.77
2022-10-17T08:46:21.948Z,33.37
2022-10-17T08:48:49.629Z,36.53
2022-10-17T08:51:21.450Z,32.97
2022-10-17T08:53:50.077Z,32.80
2022-10-17T08:56:48.835Z,29.63
2022-10-17T08:59:28.255Z,33.50
2022-10-17T09:02:03.483Z,35.63
2022-10-17T09:04:49.564Z,32.03
2022-10-17T09:07:20.829Z,34.13
2022-10-17T09:09:55.988Z,35.83
2022-10-17T09:12:28.890Z,33.87
2022-10-17T09:15:23.052Z,31.87
2022-10-17T09:17:59.705Z,34.37
2022-10-17T09:20:32.577Z,38.03
2022-10-17T09:23:20.326Z,34.10
2022-10-17T09:25:50.144Z,29.77
2022-10-17T09:28:37.521Z,29.17
2022-10-17T09:31:07.476Z,30.67
2022-10-17T09:33:53.956Z,31.47
2022-10-17T09:36:22.080Z,29.50
2022-10-17T09:38:57.784Z,29.27
2022-10-17T09:41:47.391Z,31.07
2022-10-17T09:44:23.632Z,28.03
2022-10-17T09:47:08.911Z,31.17
2022-10-17T09:49:38.574Z,27.93
2022-10-17T09:52:09.506Z,24.73
2022-10-17T09:54:44.926Z,31.03
2022-10-17T09:57:13.134Z,30.07
2022-10-17T09:59:44.340Z,25.17
2022-10-17T10:02:13.786Z,28.57
2022-10-17T10:05:06.053Z,24.50
2022-10-17T10:07:38.461Z,24.43
2022-10-17T10:10:08.314Z,24.83
2022-10-17T10:12:37.415Z,29.53
2022-10-17T10:15:34.811Z,25.27
2022-10-17T10:18:01.436Z,24.73
2022-10-17T10:20:36.809Z,21.47
2022-10-17T10:23:17.736Z,31.97
2022-10-17T10:26:01.627Z,29.20
2022-10-17T10:28:34.576Z,23.53
2022-10-17T10:31:04.680Z,26.07
2022-10-17T10:33:33.448Z,26.73
2022-10-17T10:36:02.093Z,28.53
2022-10-17T10:38:29.687Z,24.33
2022-10-17T10:41:07.797Z,20.33
2022-10-17T10:43:37.998Z,23.03
2022-10-17T10:46:16.193Z,24.63
2022-10-17T10:48:51.385Z,28.40
2022-10-17T10:51:22.529Z,20.93
2022-10-17T10:53:58.223Z,20.23
2022-10-17T10:56:49.798Z,26.07
2022-10-17T10:59:39.484Z,26.00
2022-10-17T11:02:17.733Z,27.60
2022-10-17T11:04:47.354Z,25.27
2022-10-17T11:07:20.069Z,21.57
2022-10-17T11:09:53.656Z,26.57
2022-10-17T11:12:27.608Z,25.63
2022-10-17T11:15:06.245Z,20.97
2022-10-17T11:17:40.691Z,21.87
2022-10-17T11:20:15.508Z,20.77
2022-10-17T11:22:47.706Z,21.83
2022-10-17T11:25:28.698Z,19.70
2022-10-17T11:27:55.416Z,23.03
2022-10-17T11:30:24.317Z,27.80
2022-10-17T11:32:54.402Z,25.03
2022-10-17T11:35:31.117Z,27.73
2022-10-17T11:38:07.573Z,22.03
2022-10-17T11:40:36.594Z,22.07
2022-10-17T11:43:13.611Z,21.43
2022-10-17T11:45:46.439Z,26.33
2022-10-17T11:48:20.782Z,29.47
2022-10-17T11:53:58.181Z,25.97
2022-10-17T11:57:04.965Z,28.47
2022-10-17T12:00:06.768Z,35.53
2022-10-17T12:02:47.453Z,30.00
2022-10-17T12:05:33.363Z,23.40
2022-10-17T12:08:05.920Z,26.53
2022-10-17T12:10:56.837Z,22.73
2022-10-17T12:13:29.178Z,25.43
2022-10-17T12:15:56.844Z,20.27
2022-10-17T12:18:29.865Z,25.10
2022-10-17T12:20:58.225Z,24.73
2022-10-17T12:23:28.935Z,26.40
2022-10-17T12:26:01.535Z,21.77
2022-10-17T12:28:38.041Z,22.07
2022-10-17T12:31:10.121Z,20.27
2022-10-17T12:33:49.624Z,22.33
2022-10-17T12:36:18.711Z,26.67
2022-10-17T12:38:50.113Z,22.40
2022-10-17T12:41:17.704Z,21.03
2022-10-17T12:43:52.251Z,26.70
2022-10-17T12:46:44.268Z,22.37
2022-10-17T12:49:24.872Z,22.67
2022-10-17T12:52:21.803Z,21.70
2022-10-17T12:55:11.457Z,27.13
2022-10-17T12:57:52.218Z,25.67
2022-10-17T13:00:28.875Z,26.47
2022-10-17T13:05:55.810Z,27.03
2022-10-17T13:08:25.285Z,21.57
2022-10-17T13:10:52.978Z,22.70
2022-10-17T13:13:56.265Z,23.97
2022-10-17T13:16:36.250Z,25.17
2022-10-17T13:19:12.355Z,26.17
2022-10-17T13:21:38.923Z,25.57
2022-10-17T13:24:31.555Z,23.07
2022-10-17T13:26:58.658Z,25.47
2022-10-17T13:29:26.304Z,24.30
2022-10-17T13:31:55.757Z,21.23
2022-10-17T13:34:24.809Z,25.03
2022-10-17T13:36:54.722Z,23.90
2022-10-17T13:39:38.359Z,28.10
2022-10-17T13:42:23.395Z,22.93
2022-10-17T13:44:50.272Z,28.73
2022-10-17T13:47:28.871Z,30.27
2022-10-17T13:49:57.062Z,20.33
2022-10-17T13:52:25.927Z,24.63
2022-10-17T13:54:53.837Z,27.97
2022-10-17T13:57:29.392Z,25.13
2022-10-17T14:00:02.169Z,23.00
2022-10-17T14:02:35.225Z,19.93
2022-10-17T14:05:19.216Z,25.70
2022-10-17T14:10:42.752Z,27.47
2022-10-17T14:13:28.791Z,30.07
2022-10-17T14:15:59.185Z,24.50
2022-10-17T14:18:33.199Z,22.80
2022-10-17T14:23:50.590Z,32.43
2022-10-17T14:26:21.250Z,25.47
2022-10-17T14:29:04.278Z,27.83
2022-10-17T14:31:33.582Z,30.23
2022-10-17T14:34:01.139Z,23.80
2022-10-17T14:36:37.160Z,27.13
2022-10-17T14:39:08.491Z,23.47
2022-10-17T14:41:43.554Z,20.60
2022-10-17T14:44:19.974Z,24.63
2022-10-17T14:46:50.688Z,26.00
2022-10-17T14:49:24.593Z,22.50
2022-10-17T14:52:14.906Z,20.63
2022-10-17T14:54:46.372Z,22.53
2022-10-17T14:57:23.900Z,22.80
2022-10-17T14:59:55.169Z,29.17
2022-10-17T15:02:24.385Z,30.00
2022-10-17T15:04:51.124Z,24.27
2022-10-17T15:07:18.060Z,22.73
2022-10-17T15:09:45.689Z,30.30
2022-10-17T15:12:17.407Z,27.30
2022-10-17T15:14:44.819Z,28.63
2022-10-17T15:17:18.769Z,25.83
2022-10-17T15:19:45.282Z,38.33
2022-10-17T15:22:12.351Z,27.87
2022-10-17T15:24:39.071Z,24.67
2022-10-17T15:27:21.954Z,28.80
2022-10-17T15:29:49.057Z,28.97
2022-10-17T15:32:16.085Z,27.20
2022-10-17T15:34:42.956Z,28.80
2022-10-17T15:37:23.315Z,30.83
2022-10-17T15:39:54.652Z,29.87
2022-10-17T15:42:23.382Z,27.90
2022-10-17T15:44:50.273Z,25.97
2022-10-17T15:47:33.785Z,25.47
2022-10-17T15:50:01.314Z,29.93
2022-10-17T15:52:28.266Z,32.13
2022-10-17T15:54:57.285Z,26.30
2022-10-17T15:57:28.885Z,30.03
2022-10-17T15:59:57.764Z,25.97
2022-10-17T16:02:24.765Z,29.70
2022-10-17T16:04:51.864Z,28.50
2022-10-17T16:07:22.526Z,29.80
2022-10-17T16:09:49.044Z,24.63
2022-10-17T16:12:18.376Z,28.80
2022-10-17T16:14:45.443Z,35.80
2022-10-17T16:17:17.900Z,26.20
2022-10-17T16:19:44.817Z,32.23
2022-10-17T16:22:44.136Z,28.57
2022-10-17T16:25:20.896Z,39.63
2022-10-17T16:27:48.385Z,37.13
2022-10-17T16:30:15.389Z,33.17
2022-10-17T16:32:42.038Z,43.37
2022-10-17T16:35:09.155Z,35.53
2022-10-17T16:37:35.979Z,33.33
2022-10-17T16:40:04.412Z,34.00
2022-10-17T16:42:31.535Z,38.13
2022-10-17T16:44:58.309Z,47.80
2022-10-17T16:47:24.763Z,32.50
2022-10-17T16:49:51.328Z,39.13
2022-10-17T16:52:17.741Z,38.40
2022-10-17T16:54:44.245Z,32.53
2022-10-17T16:57:10.822Z,51.67
2022-10-17T16:59:37.263Z,31.40
2022-10-17T17:02:03.684Z,35.70
2022-10-17T17:04:31.256Z,29.10
2022-10-17T17:06:57.770Z,35.00
2022-10-17T17:09:24.569Z,33.27
2022-10-17T17:11:54.178Z,39.33
2022-10-17T17:14:20.750Z,33.47
2022-10-17T17:16:47.286Z,34.33
2022-10-17T17:19:16.767Z,34.17
2022-10-17T17:21:51.102Z,30.43
2022-10-17T17:24:20.766Z,31.20
2022-10-17T17:26:54.020Z,32.03
2022-10-17T17:29:21.658Z,35.07
2022-10-17T17:31:49.024Z,27.83
2022-10-17T17:34:18.060Z,28.60
2022-10-17T17:36:45.266Z,33.20
2022-10-17T17:39:14.524Z,30.60
2022-10-17T17:41:42.049Z,34.47
2022-10-17T17:44:12.586Z,31.40
2022-10-17T17:46:43.794Z,29.90
2022-10-17T17:49:11.538Z,29.10
2022-10-17T17:51:38.362Z,31.70
2022-10-17T17:54:05.231Z,30.57
2022-10-17T17:56:32.384Z,30.53
2022-10-17T17:59:01.597Z,30.40
2022-10-17T18:01:38.533Z,34.77
2022-10-17T18:04:08.527Z,35.50
2022-10-17T18:06:36.287Z,35.67
2022-10-17T18:09:04.008Z,31.83
2022-10-17T18:11:31.162Z,32.20
2022-10-17T18:14:00.474Z,35.97
2022-10-17T18:16:28.153Z,32.77
2022-10-17T18:18:54.625Z,36.53
2022-10-17T18:21:21.467Z,35.73
2022-10-17T18:23:48.710Z,37.43
2022-10-17T18:26:15.538Z,41.87
2022-10-17T18:28:43.210Z,34.30
2022-10-17T18:31:24.322Z,36.90
2022-10-17T18:33:52.776Z,33.93
2022-10-17T18:36:19.445Z,36.00
2022-10-17T18:38:45.981Z,42.03
2022-10-17T18:41:15.381Z,33.63
2022-10-17T18:43:43.873Z,37.30
2022-10-17T18:46:25.217Z,30.17
2022-10-17T18:48:51.911Z,42.57
2022-10-17T18:51:21.830Z,36.43
2022-10-17T18:53:50.678Z,29.83
2022-10-17T18:56:19.227Z,36.40
2022-10-17T18:58:46.085Z,36.20
2022-10-17T19:01:17.865Z,35.47
2022-10-17T19:03:45.973Z,36.23
2022-10-17T19:06:13.837Z,37.03
2022-10-17T19:08:41.099Z,40.57
2022-10-17T19:11:13.271Z,45.43
2022-10-17T19:13:40.193Z,43.43
2022-10-17T19:16:12.635Z,40.57
2022-10-17T19:18:39.137Z,37.00
2022-10-17T19:21:08.145Z,32.50
2022-10-17T19:23:38.117Z,42.13
2022-10-17T19:26:06.551Z,34.50
2022-10-17T19:28:33.661Z,32.53
2022-10-17T19:31:00.398Z,34.00
2022-10-17T19:36:00.466Z,33.50
2022-10-17T19:38:27.413Z,32.07
2022-10-17T19:40:54.271Z,34.33
2022-10-17T19:43:21.093Z,35.10
2022-10-17T19:45:57.769Z,33.17
2022-10-17T19:48:24.993Z,35.03
2022-10-17T19:50:52.793Z,32.83
2022-10-17T19:53:20.352Z,35.47
2022-10-17T19:55:46.975Z,35.90
2022-10-17T19:58:13.689Z,38.40
2022-10-17T20:00:49.287Z,32.70
2022-10-17T20:03:16.400Z,36.73
2022-10-17T20:05:42.994Z,31.77
2022-10-17T20:08:09.683Z,35.87
2022-10-17T20:10:36.303Z,33.07
2022-10-17T20:13:02.977Z,29.17
2022-10-17T20:15:29.864Z,32.13
2022-10-17T20:17:56.769Z,34.70
2022-10-17T20:20:23.399Z,33.90
2022-10-17T20:22:50.187Z,36.87
2022-10-17T20:25:16.692Z,33.97
2022-10-17T20:27:43.246Z,36.97
2022-10-17T20:30:10.010Z,36.67
2022-10-17T20:32:39.493Z,33.27
2022-10-17T20:35:07.752Z,35.87
2022-10-17T20:37:39.875Z,41.83
2022-10-17T20:42:55.720Z,38.77
2022-10-17T20:45:37.321Z,31.70
2022-10-17T20:48:15.955Z,38.27
2022-10-17T20:50:43.375Z,39.17
2022-10-17T20:53:35.356Z,35.07
2022-10-17T20:56:08.755Z,32.27
2022-10-17T20:58:35.634Z,31.37
2022-10-17T21:01:09.478Z,31.17
2022-10-17T21:03:42.378Z,38.90
2022-10-17T21:06:12.439Z,29.27
2022-10-17T21:08:38.923Z,40.23
2022-10-17T21:11:27.571Z,32.30
2022-10-17T21:13:56.839Z,33.03
2022-10-17T21:16:23.999Z,35.80
2022-10-17T21:18:50.874Z,33.17
2022-10-17T21:21:23.526Z,36.07
2022-10-17T21:23:51.109Z,28.50
2022-10-17T21:26:18.581Z,31.80
2022-10-17T21:28:46.288Z,30.80
2022-10-17T21:31:17.335Z,34.03
2022-10-17T21:33:46.344Z,33.67
2022-10-17T21:36:13.917Z,32.10
2022-10-17T21:38:40.872Z,35.03
2022-10-17T21:41:08.708Z,37.03
2022-10-17T21:43:36.261Z,30.07
2022-10-17T21:46:13.792Z,32.97
2022-10-17T21:48:40.539Z,31.00
2022-10-17T21:51:09.406Z,31.23
2022-10-17T21:53:36.205Z,31.73
2022-10-17T21:56:04.737Z,32.40
2022-10-17T21:58:32.253Z,29.97
2022-10-17T22:01:15.825Z,34.73
2022-10-17T22:03:47.183Z,31.13
2022-10-17T22:09:33.848Z,25.73
2022-10-17T22:12:00.429Z,29.30
2022-10-17T22:14:27.357Z,34.00
2022-10-17T22:16:54.026Z,27.70
2022-10-17T22:19:25.200Z,34.10
2022-10-17T22:21:52.110Z,32.70
2022-10-17T22:26:51.912Z,30.53
2022-10-17T22:29:18.976Z,28.53
2022-10-17T22:31:45.848Z,26.73
2022-10-17T22:34:14.517Z,30.43
2022-10-17T22:36:41.375Z,25.03
2022-10-17T22:39:07.860Z,30.77
2022-10-17T22:41:34.443Z,26.53
2022-10-17T22:44:01.307Z,29.07
2022-10-17T22:46:27.914Z,26.57
2022-10-17T22:48:54.554Z,28.97
2022-10-17T22:51:21.067Z,30.37
2022-10-17T22:53:47.624Z,29.57
2022-10-17T22:56:16.650Z,27.97
2022-10-17T22:58:43.155Z,28.87
2022-10-17T23:01:14.317Z,31.07
2022-10-17T23:03:40.916Z,30.20
2022-10-17T23:06:07.383Z,26.83
2022-10-17T23:08:33.873Z,23.73
2022-10-17T23:11:00.789Z,25.47
2022-10-17T23:13:27.347Z,24.47
2022-10-17T23:15:55.650Z,20.87
2022-10-17T23:18:23.552Z,28.13
2022-10-17T23:20:50.538Z,26.37
2022-10-17T23:23:17.214Z,21.10
2022-10-17T23:25:43.936Z,22.00
2022-10-17T23:28:10.766Z,25.17
2022-10-17T23:30:37.956Z,21.70
2022-10-17T23:33:05.195Z,22.67
2022-10-17T23:35:32.446Z,19.30
2022-10-17T23:37:58.885Z,20.90
2022-10-17T23:40:25.424Z,23.43
2022-10-17T23:42:52.063Z,23.17
2022-10-17T23:45:18.650Z,21.50
2022-10-17T23:47:45.405Z,16.87
2022-10-17T23:50:12.201Z,17.60
2022-10-17T23:52:39.068Z,17.77
2022-10-17T23:55:06.168Z,21.23
2022-10-17T23:57:33.081Z,16.53
2022-10-17T23:59:59.831Z,16.50
